LFBTLFMU

Guest
Details From LFBT - Tarbes Ossun Lourdes
To LFMU - Beziers Vias
Flight Number -
Tags generated
Created
Modified
Stats Distance 147 nm / 273 km
Max Altitude 9,300 ft / 2,835 m
Waypoints 3
Social Downloads 279
Likes 0
Share VATSIM

Download

Looking for another format? Having issues loading an existing format? Contact us
Advertisement - Login to hide

Notes

Basic altitude profile: - Ascent Rate: 2500ft/min - Ascent Speed: 250kts - Cruise Altitude: 35000ft - Cruise Speed: 420kts - Descent Rate: 1500ft/min - Descent Speed: 250kts Options: - Use NATs: yes - Use PACOTS: yes - Use low airways: yes - Use high airways: yes

Route

LFBT SALSI LFMU

ID Type Via Altitude Latitude Longitude Leg Dist Tot Dist Heading (true) Name
O LFBT APT - 0 ft / 0 m 43.17864˚ -0.00634˚ - 0 nm - Tarbes Ossun Lourdes
SALSI FIX - 9,300 ft / 2,835 m 43.34778˚ 2.35722˚ 103 nm 103 nm 84° / 85° -
O LFMU APT - 0 ft / 0 m 43.32342˚ 3.35357˚ 43 nm 147 nm 92° / 92° Beziers Vias

Altitude Profile

Advertisement - Login to hide

LFBT

Details ICAO LFBT (LDE)
Name Tarbes Ossun Lourdes
Region France
Timezone Europe/Paris (UTC+2.0)
Stats Elevation 1,260 ft / 384 m (AMSL)
Location 43.178643° -0.006340°
Runways 1
Magnetic Variation 0.270° E

METAR

LFBT 210730Z AUTO 07003KT 020V130 CAVOK 19/11 Q1012 NOSIG

Decode

TAF

TAF LFBT 210500Z 2106/2206 VRB03KT 9999 BKN080 TEMPO 2110/2121 4000 SHRA BKN035TCU FEW040CB PROB40 TEMPO 2113/2120 TSRA BKN045CB TEMPO 2201/2206 SHRA BKN050

Decode

Departure Runways

ID Width Length Bearing (true) Bearing (mag) Surface Threshold Offset Overrun Length
02 148 ft / 45 m 9,847 ft / 3,001 m 20.26° 19.99° Asphalt 2,199 ft / 670 m 0 ft / 0 m
20 148 ft / 45 m 9,847 ft / 3,001 m 200.27° 200.00° Asphalt 0 ft / 0 m 0 ft / 0 m

LFMU

Details ICAO LFMU (BZR)
Name Beziers Vias
Region France
Timezone Europe/Paris (UTC+2.0)
Stats Elevation 54 ft / 16 m (AMSL)
Location 43.323422° 3.353573°
Runways 1
Magnetic Variation 1.150° E

METAR

LFMU 210730Z AUTO 06005KT 030V110 CAVOK 20/13 Q1013 NOSIG

Decode

TAF

TAF AMD LFMU 210221Z 2103/2203 06005KT CAVOK PROB30 TEMPO 2103/2107 3000 BR BKN010 TEMPO 2110/2117 13012KT

Decode

Destination Runways

ID Width Length Bearing (true) Bearing (mag) Surface Threshold Offset Overrun Length
10 115 ft / 35 m 5,955 ft / 1,815 m 94.20° 93.05° Asphalt 459 ft / 140 m 0 ft / 0 m
28 115 ft / 35 m 5,955 ft / 1,815 m 274.22° 273.07° Asphalt 0 ft / 0 m 0 ft / 0 m

Approach Navaids

Runway Type Ident Frequency Range Bearing (true) Bearing (mag) Slope Elevation
10 Localiser ZR 109.35 MHz 18 nm / 33 km 94.52° 93.37° - 50 ft / 15 m (AMSL)
10 Glidescope ZR 109.35 MHz 10 nm / 19 km 94.21° 93.06° 3.00° 92 ft / 28 m (AMSL)
10 DME ZR 109.35 MHz 18 nm / 33 km - - - 92 ft / 28 m (AMSL)

Popular Alternatives